createdAt,value
2017-06-05T00:00:09.751Z,0
2017-06-05T00:01:09.748Z,0
2017-06-05T00:02:09.728Z,0
2017-06-05T00:03:09.722Z,0
2017-06-05T00:04:09.708Z,0
2017-06-05T00:05:09.693Z,0
2017-06-05T00:06:09.694Z,0
2017-06-05T00:07:09.677Z,0
2017-06-05T00:08:09.656Z,0
2017-06-05T00:09:09.349Z,0
2017-06-05T00:10:08.725Z,0
2017-06-05T00:11:09.622Z,0
2017-06-05T00:12:09.300Z,0
2017-06-05T00:13:09.590Z,0
2017-06-05T00:14:09.579Z,0
2017-06-05T00:15:09.564Z,0
2017-06-05T00:16:09.552Z,0
2017-06-05T00:17:09.236Z,0
2017-06-05T00:18:09.534Z,0
2017-06-05T00:19:09.510Z,0
2017-06-05T00:20:09.500Z,0
2017-06-05T00:21:09.189Z,0
2017-06-05T00:22:09.171Z,0
2017-06-05T00:23:09.461Z,0
2017-06-05T00:24:09.454Z,0
2017-06-05T00:25:09.436Z,0
2017-06-05T00:26:09.426Z,0
2017-06-05T00:27:09.413Z,0
2017-06-05T00:28:09.432Z,0
2017-06-05T00:29:09.084Z,0
2017-06-05T00:30:08.765Z,0
2017-06-05T00:31:09.355Z,0
2017-06-05T00:32:09.371Z,0
2017-06-05T00:33:09.338Z,0
2017-06-05T00:34:09.015Z,0
2017-06-05T00:35:09.307Z,0
2017-06-05T00:36:09.294Z,0
2017-06-05T00:37:08.972Z,0
2017-06-05T00:38:09.263Z,0
2017-06-05T00:39:09.250Z,0
2017-06-05T00:40:08.935Z,0
2017-06-05T00:41:08.927Z,0
2017-06-05T00:42:08.910Z,0
2017-06-05T00:43:09.204Z,0
2017-06-05T00:44:09.189Z,0
2017-06-05T00:45:09.171Z,0
2017-06-05T00:46:09.161Z,0
2017-06-05T00:47:09.149Z,0
2017-06-05T00:48:08.830Z,0
2017-06-05T00:49:09.121Z,0
2017-06-05T00:50:09.123Z,0
2017-06-05T00:51:09.100Z,0
2017-06-05T00:52:08.480Z,0
2017-06-05T00:53:09.073Z,0
2017-06-05T00:54:09.052Z,0
2017-06-05T00:55:08.745Z,0
2017-06-05T00:56:08.725Z,0
2017-06-05T00:57:08.721Z,0
2017-06-05T00:58:08.713Z,0
2017-06-05T00:59:08.996Z,0
2017-06-05T01:00:08.982Z,0
2017-06-05T01:01:08.666Z,0
2017-06-05T01:02:08.351Z,0
2017-06-05T01:03:08.939Z,0
2017-06-05T01:04:08.926Z,0
2017-06-05T01:05:08.912Z,0
2017-06-05T01:06:08.899Z,0
2017-06-05T01:07:08.886Z,0
2017-06-05T01:08:08.874Z,0
2017-06-05T01:09:08.862Z,0
2017-06-05T01:10:08.552Z,0
2017-06-05T01:11:08.828Z,0
2017-06-05T01:12:08.816Z,0
2017-06-05T01:13:08.806Z,0
2017-06-05T01:14:08.791Z,0
2017-06-05T01:15:08.780Z,0
2017-06-05T01:16:08.768Z,0
2017-06-05T01:17:08.147Z,0
2017-06-05T01:18:08.444Z,0
2017-06-05T01:19:08.726Z,0
2017-06-05T01:20:08.409Z,0
2017-06-05T01:21:08.427Z,0
2017-06-05T01:22:08.082Z,0
2017-06-05T01:23:08.667Z,0
2017-06-05T01:24:08.663Z,0
2017-06-05T01:25:08.642Z,0
2017-06-05T01:26:08.633Z,0
2017-06-05T01:27:08.616Z,0
2017-06-05T01:28:08.603Z,0
2017-06-05T01:29:08.589Z,0
2017-06-05T01:30:08.575Z,0
2017-06-05T01:31:08.563Z,0
2017-06-05T01:32:08.249Z,0
2017-06-05T01:33:08.233Z,0
2017-06-05T01:34:08.520Z,0
2017-06-05T01:35:08.504Z,0
2017-06-05T01:36:08.494Z,0
2017-06-05T01:37:08.479Z,0
2017-06-05T01:38:08.166Z,0
2017-06-05T01:39:08.454Z,0
2017-06-05T01:40:08.143Z,0
2017-06-05T01:41:08.433Z,0
2017-06-05T01:42:08.416Z,0
2017-06-05T01:43:08.097Z,0
2017-06-05T01:44:08.084Z,0
2017-06-05T01:45:08.374Z,0
2017-06-05T01:46:08.360Z,0
2017-06-05T01:47:08.352Z,0
2017-06-05T01:48:08.034Z,0
2017-06-05T01:49:08.325Z,0
2017-06-05T01:50:08.304Z,0
2017-06-05T01:51:08.293Z,0
2017-06-05T01:52:07.677Z,0
2017-06-05T01:53:08.265Z,0
2017-06-05T01:54:08.256Z,0
2017-06-05T01:55:07.942Z,0
2017-06-05T01:56:07.930Z,0
2017-06-05T01:57:07.925Z,0
2017-06-05T01:58:08.199Z,0
2017-06-05T01:59:08.193Z,0
2017-06-05T02:00:08.181Z,0
2017-06-05T02:01:08.163Z,0
2017-06-05T02:02:07.260Z,0
2017-06-05T02:03:08.139Z,0
2017-06-05T02:04:08.125Z,0
2017-06-05T02:05:08.114Z,0
2017-06-05T02:06:08.099Z,0
2017-06-05T02:07:08.086Z,0
2017-06-05T02:08:07.780Z,0
2017-06-05T02:09:08.070Z,0
2017-06-05T02:10:08.055Z,0
2017-06-05T02:11:08.051Z,0
2017-06-05T02:12:07.724Z,0
2017-06-05T02:13:08.016Z,0
2017-06-05T02:14:08.004Z,0
2017-06-05T02:15:07.985Z,0
2017-06-05T02:16:07.679Z,0
2017-06-05T02:17:07.966Z,0
2017-06-05T02:18:07.657Z,0
2017-06-05T02:19:07.939Z,0
2017-06-05T02:20:07.319Z,0
2017-06-05T02:21:07.917Z,0
2017-06-05T02:22:07.602Z,0
2017-06-05T02:23:07.586Z,0
2017-06-05T02:24:07.881Z,0
2017-06-05T02:25:07.859Z,0
2017-06-05T02:26:07.549Z,0
2017-06-05T02:27:07.541Z,0
2017-06-05T02:28:07.834Z,0
2017-06-05T02:29:07.507Z,0
2017-06-05T02:30:07.803Z,0
2017-06-05T02:31:07.189Z,0
2017-06-05T02:32:07.470Z,0
2017-06-05T02:33:07.763Z,0
2017-06-05T02:34:07.450Z,0
2017-06-05T02:35:07.741Z,0
2017-06-05T02:36:07.724Z,0
2017-06-05T02:37:07.709Z,0
2017-06-05T02:38:07.696Z,0
2017-06-05T02:39:07.690Z,0
2017-06-05T02:40:07.681Z,0
2017-06-05T02:41:07.657Z,0
2017-06-05T02:42:07.348Z,0
2017-06-05T02:43:07.630Z,0
2017-06-05T02:44:07.325Z,4
2017-06-05T02:45:07.611Z,4
2017-06-05T02:46:07.598Z,0
2017-06-05T02:47:07.584Z,0
2017-06-05T02:48:07.576Z,4
2017-06-05T02:49:07.559Z,4
2017-06-05T02:50:07.547Z,4
2017-06-05T02:51:07.534Z,4
2017-06-05T02:52:07.219Z,4
2017-06-05T02:53:07.207Z,8
2017-06-05T02:54:07.496Z,8
2017-06-05T02:55:07.482Z,4
2017-06-05T02:56:07.470Z,8
2017-06-05T02:57:07.154Z,12
2017-06-05T02:58:07.444Z,12
2017-06-05T02:59:07.431Z,12
2017-06-05T03:00:07.416Z,16
2017-06-05T03:01:07.409Z,16
2017-06-05T03:02:07.390Z,16
2017-06-05T03:03:07.386Z,24
2017-06-05T03:04:07.094Z,24
2017-06-05T03:05:07.352Z,28
2017-06-05T03:06:07.335Z,36
2017-06-05T03:07:07.323Z,40
2017-06-05T03:08:07.008Z,44
2017-06-05T03:09:07.298Z,48
2017-06-05T03:10:06.982Z,60
2017-06-05T03:11:07.277Z,60
2017-06-05T03:12:07.264Z,68
2017-06-05T03:13:07.248Z,76
2017-06-05T03:14:07.267Z,88
2017-06-05T03:15:07.221Z,100
2017-06-05T03:16:07.202Z,112
2017-06-05T03:17:07.192Z,132
2017-06-05T03:18:07.183Z,148
2017-06-05T03:19:06.863Z,160
2017-06-05T03:20:07.153Z,168
2017-06-05T03:21:06.842Z,188
2017-06-05T03:22:07.120Z,192
2017-06-05T03:23:07.120Z,196
2017-06-05T03:24:07.100Z,204
2017-06-05T03:25:06.786Z,228
2017-06-05T03:26:06.464Z,256
2017-06-05T03:27:06.754Z,264
2017-06-05T03:28:06.741Z,292
2017-06-05T03:29:06.733Z,316
2017-06-05T03:30:06.752Z,324
2017-06-05T03:31:07.000Z,352
2017-06-05T03:32:06.988Z,384
2017-06-05T03:33:06.677Z,416
2017-06-05T03:34:06.981Z,448
2017-06-05T03:35:06.950Z,504
2017-06-05T03:36:06.933Z,532
2017-06-05T03:37:06.923Z,592
2017-06-05T03:38:06.912Z,672
2017-06-05T03:39:06.893Z,756
2017-06-05T03:40:06.887Z,812
2017-06-05T03:41:06.864Z,856
2017-06-05T03:42:06.850Z,932
2017-06-05T03:43:06.546Z,968
2017-06-05T03:44:06.827Z,980
2017-06-05T03:45:06.810Z,1004
2017-06-05T03:46:06.799Z,1104
2017-06-05T03:47:06.489Z,1116
2017-06-05T03:48:06.774Z,1184
2017-06-05T03:49:06.754Z,1212
2017-06-05T03:50:06.441Z,1228
2017-06-05T03:51:06.733Z,1272
2017-06-05T03:52:06.718Z,1300
2017-06-05T03:53:06.096Z,1288
2017-06-05T03:54:06.684Z,1120
2017-06-05T03:55:06.376Z,1268
2017-06-05T03:56:06.673Z,1272
2017-06-05T03:57:06.650Z,1272
2017-06-05T03:58:06.635Z,1200
2017-06-05T03:59:06.617Z,1248
2017-06-05T04:00:06.606Z,1188
2017-06-05T04:01:06.289Z,1300
2017-06-05T04:02:06.584Z,1260
2017-06-05T04:03:06.261Z,1248
2017-06-05T04:04:06.248Z,1404
2017-06-05T04:05:06.538Z,1420
2017-06-05T04:06:06.527Z,1464
2017-06-05T04:07:06.515Z,1536
2017-06-05T04:08:06.491Z,1656
2017-06-05T04:09:06.477Z,1688
2017-06-05T04:10:06.474Z,1684
2017-06-05T04:11:06.459Z,1700
2017-06-05T04:12:06.438Z,1720
2017-06-05T04:13:06.427Z,1800
2017-06-05T04:14:06.416Z,1840
2017-06-05T04:15:06.392Z,1876
2017-06-05T04:16:06.384Z,1904
2017-06-05T04:17:06.067Z,1944
2017-06-05T04:18:06.358Z,1976
2017-06-05T04:19:06.039Z,2044
2017-06-05T04:20:06.326Z,2124
2017-06-05T04:21:06.316Z,2188
2017-06-05T04:22:05.996Z,2288
2017-06-05T04:23:06.283Z,2380
2017-06-05T04:24:06.269Z,2460
2017-06-05T04:25:06.256Z,2604
2017-06-05T04:26:06.247Z,2712
2017-06-05T04:27:05.647Z,2828
2017-06-05T04:28:05.919Z,2964
2017-06-05T04:29:06.204Z,3104
2017-06-05T04:30:06.196Z,3268
2017-06-05T04:31:06.176Z,3396
2017-06-05T04:32:06.161Z,3504
2017-06-05T04:33:06.144Z,3556
2017-06-05T04:34:06.138Z,3624
2017-06-05T04:35:06.334Z,3708
2017-06-05T04:36:06.113Z,3740
2017-06-05T04:37:06.118Z,3776
2017-06-05T04:38:06.086Z,3780
2017-06-05T04:39:06.075Z,3804
2017-06-05T04:40:06.055Z,3884
2017-06-05T04:41:05.932Z,3996
2017-06-05T04:42:06.033Z,4084
2017-06-05T04:43:06.021Z,4128
2017-06-05T04:44:06.004Z,4148
2017-06-05T04:45:05.995Z,4176
2017-06-05T04:46:05.992Z,4136
2017-06-05T04:47:05.965Z,4132
2017-06-05T04:48:05.966Z,4128
2017-06-05T04:49:05.938Z,4184
2017-06-05T04:50:05.629Z,4404
2017-06-05T04:51:05.920Z,4712
2017-06-05T04:52:05.906Z,5032
2017-06-05T04:53:05.899Z,5460
2017-06-05T04:54:05.883Z,5928
2017-06-05T04:55:05.861Z,6316
2017-06-05T04:56:05.860Z,6592
2017-06-05T04:57:05.849Z,6716
2017-06-05T04:58:05.835Z,6724
2017-06-05T04:59:05.816Z,6548
2017-06-05T05:00:05.502Z,6276
2017-06-05T05:01:05.797Z,6000
2017-06-05T05:02:05.783Z,5804
2017-06-05T05:03:05.469Z,5720
2017-06-05T05:04:05.760Z,5740
2017-06-05T05:05:05.754Z,5800
2017-06-05T05:06:05.437Z,5848
2017-06-05T05:07:05.725Z,5980
2017-06-05T05:08:05.720Z,6048
2017-06-05T05:09:05.702Z,6288
2017-06-05T05:10:18.772Z,6676
2017-06-05T05:11:05.875Z,6768
2017-06-05T05:12:05.579Z,6920
2017-06-05T05:13:05.652Z,6860
2017-06-05T05:14:05.646Z,6916
2017-06-05T05:15:05.631Z,7108
2017-06-05T05:16:05.815Z,6792
2017-06-05T05:17:18.690Z,6392
2017-06-05T05:18:05.589Z,6300
2017-06-05T05:19:05.582Z,6100
2017-06-05T05:20:05.573Z,6188
2017-06-05T05:21:05.760Z,6264
2017-06-05T05:22:05.751Z,6500
2017-06-05T05:23:05.539Z,6440
2017-06-05T05:24:05.523Z,6180
2017-06-05T05:25:05.213Z,6076
2017-06-05T05:26:05.498Z,5944
2017-06-05T05:27:05.488Z,6396
2017-06-05T05:28:05.475Z,6816
2017-06-05T05:29:05.466Z,6964
2017-06-05T05:30:04.848Z,6840
2017-06-05T05:31:05.438Z,7128
2017-06-05T05:32:05.125Z,7420
2017-06-05T05:33:05.419Z,7604
2017-06-05T05:34:05.404Z,7772
2017-06-05T05:35:05.089Z,7788
2017-06-05T05:36:05.377Z,7748
2017-06-05T05:37:05.364Z,7772
2017-06-05T05:38:05.357Z,7688
2017-06-05T05:39:05.342Z,7436
2017-06-05T05:40:05.333Z,7156
2017-06-05T05:41:05.313Z,7040
2017-06-05T05:42:05.309Z,6468
2017-06-05T05:43:05.197Z,6124
2017-06-05T05:44:05.281Z,6416
2017-06-05T05:45:05.272Z,6500
2017-06-05T05:46:05.253Z,6692
2017-06-05T05:47:05.240Z,6748
2017-06-05T05:48:05.229Z,6596
2017-06-05T05:49:05.219Z,6692
2017-06-05T05:50:04.899Z,6764
2017-06-05T05:51:19.804Z,6736
2017-06-05T05:52:05.180Z,6912
2017-06-05T05:53:05.163Z,7228
2017-06-05T05:54:05.151Z,7208
2017-06-05T05:55:05.145Z,7588
2017-06-05T05:56:05.130Z,8640
2017-06-05T05:57:05.118Z,9372
2017-06-05T05:58:04.497Z,10152
2017-06-05T05:59:05.089Z,10932
2017-06-05T06:00:05.089Z,12084
2017-06-05T06:01:05.066Z,13012
2017-06-05T06:02:05.049Z,13748
2017-06-05T06:03:05.040Z,14164
2017-06-05T06:04:05.029Z,13900
2017-06-05T06:05:04.715Z,13524
2017-06-05T06:06:04.699Z,14460
2017-06-05T06:07:04.990Z,14112
2017-06-05T06:08:04.974Z,13952
2017-06-05T06:09:04.659Z,14332
2017-06-05T06:10:04.348Z,13904
2017-06-05T06:11:04.941Z,14412
2017-06-05T06:12:04.923Z,14084
2017-06-05T06:13:04.915Z,13832
2017-06-05T06:14:04.899Z,13488
2017-06-05T06:15:04.889Z,12880
2017-06-05T06:16:04.872Z,12780
2017-06-05T06:17:04.864Z,12736
2017-06-05T06:18:04.851Z,12088
2017-06-05T06:19:04.841Z,12196
2017-06-05T06:20:04.830Z,12796
2017-06-05T06:21:04.810Z,13348
2017-06-05T06:22:04.797Z,13796
2017-06-05T06:23:04.788Z,14156
2017-06-05T06:24:04.374Z,14168
2017-06-05T06:25:04.763Z,13536
2017-06-05T06:26:04.747Z,13680
2017-06-05T06:27:04.937Z,14440
2017-06-05T06:28:04.725Z,15464
2017-06-05T06:29:04.916Z,17212
2017-06-05T06:30:04.694Z,18912
2017-06-05T06:31:04.680Z,20288
2017-06-05T06:32:04.673Z,21280
2017-06-05T06:33:04.860Z,21536
2017-06-05T06:34:04.850Z,21632
2017-06-05T06:35:04.644Z,21472
2017-06-05T06:36:04.653Z,20768
2017-06-05T06:37:04.305Z,20608
2017-06-05T06:38:04.602Z,20192
2017-06-05T06:39:04.612Z,19072
2017-06-05T06:40:04.614Z,17696
2017-06-05T06:41:04.562Z,17728
2017-06-05T06:42:04.550Z,19424
2017-06-05T06:43:04.549Z,21120
2017-06-05T06:44:04.539Z,21376
2017-06-05T06:45:04.518Z,21408
2017-06-05T06:46:04.507Z,21920
2017-06-05T06:47:04.503Z,20832
2017-06-05T06:48:04.491Z,22848
2017-06-05T06:49:04.478Z,24000
2017-06-05T06:50:04.465Z,24480
2017-06-05T06:51:04.150Z,25056
2017-06-05T06:52:04.441Z,25056
2017-06-05T06:53:04.434Z,24608
2017-06-05T06:54:04.420Z,23776
2017-06-05T06:55:04.409Z,24800
2017-06-05T06:56:04.394Z,27072
2017-06-05T06:57:04.390Z,28352
2017-06-05T06:58:04.374Z,31712
2017-06-05T06:59:04.058Z,28416
2017-06-05T07:00:04.565Z,25888
2017-06-05T07:01:04.235Z,26912
2017-06-05T07:02:04.321Z,28384
2017-06-05T07:03:04.313Z,27200
2017-06-05T07:04:04.002Z,28032
2017-06-05T07:05:04.507Z,30016
2017-06-05T07:06:04.178Z,27872
2017-06-05T07:07:04.265Z,27072
2017-06-05T07:08:04.258Z,26112
2017-06-05T07:09:04.241Z,27328
2017-06-05T07:10:04.230Z,24960
2017-06-05T07:11:03.917Z,24032
2017-06-05T07:12:04.212Z,23712
2017-06-05T07:13:04.201Z,24512
2017-06-05T07:14:04.188Z,28832
2017-06-05T07:15:03.874Z,36512
2017-06-05T07:16:03.859Z,40992
2017-06-05T07:17:03.847Z,36704
2017-06-05T07:18:03.838Z,40256
2017-06-05T07:19:04.130Z,32544
2017-06-05T07:20:04.119Z,31040
2017-06-05T07:21:04.114Z,30368
2017-06-05T07:22:04.094Z,26336
2017-06-05T07:23:03.480Z,26016
2017-06-05T07:24:03.771Z,24256
2017-06-05T07:25:04.061Z,21472
2017-06-05T07:26:04.052Z,22240
2017-06-05T07:27:04.046Z,23488
2017-06-05T07:28:04.024Z,24128
2017-06-05T07:29:04.023Z,23712
2017-06-05T07:30:04.009Z,25120
2017-06-05T07:31:03.692Z,26304
2017-06-05T07:32:03.985Z,25728
2017-06-05T07:33:03.971Z,24864
2017-06-05T07:34:03.961Z,26656
2017-06-05T07:35:03.646Z,25120
2017-06-05T07:36:03.631Z,24640
2017-06-05T07:37:03.925Z,28992
2017-06-05T07:38:03.913Z,27520
2017-06-05T07:39:03.900Z,29056
2017-06-05T07:40:03.888Z,29152
2017-06-05T07:41:04.081Z,28256
2017-06-05T07:42:03.864Z,30880
2017-06-05T07:43:03.854Z,32480
2017-06-05T07:44:03.842Z,34016
2017-06-05T07:45:03.832Z,35744
2017-06-05T07:46:03.817Z,36000
2017-06-05T07:47:03.806Z,36576
2017-06-05T07:48:03.793Z,37056
2017-06-05T07:49:03.787Z,37280
2017-06-05T07:50:03.771Z,43072
2017-06-05T07:51:03.763Z,44768
2017-06-05T07:52:03.775Z,46912
2017-06-05T07:53:03.737Z,48768
2017-06-05T07:54:03.724Z,48768
2017-06-05T07:55:03.717Z,44480
2017-06-05T07:56:03.708Z,46016
2017-06-05T07:57:03.391Z,42656
2017-06-05T07:58:03.680Z,38720
2017-06-05T07:59:03.371Z,39104
2017-06-05T08:00:03.357Z,42880
2017-06-05T08:01:03.648Z,49120
2017-06-05T08:02:03.634Z,55456
2017-06-05T08:03:03.626Z,63552
2017-06-05T08:04:03.613Z,90848
2017-06-05T08:05:03.605Z,84096
2017-06-05T08:06:03.598Z,61344
2017-06-05T08:07:03.582Z,64192
2017-06-05T08:08:03.576Z,60768
2017-06-05T08:09:03.565Z,57056
2017-06-05T08:10:03.546Z,47360
2017-06-05T08:11:03.246Z,46656
2017-06-05T08:12:03.531Z,48928
2017-06-05T08:13:03.526Z,55008
2017-06-05T08:14:03.514Z,44992
2017-06-05T08:15:03.502Z,41728
2017-06-05T08:16:03.491Z,39264
2017-06-05T08:17:03.478Z,37792
2017-06-05T08:18:03.185Z,35744
2017-06-05T08:19:03.460Z,34752
2017-06-05T08:20:03.457Z,34592
2017-06-05T08:21:03.442Z,34912
2017-06-05T08:22:03.429Z,36928
2017-06-05T08:23:03.421Z,40032
2017-06-05T08:24:03.409Z,43360
2017-06-05T08:25:03.396Z,41824
2017-06-05T08:26:03.387Z,41920
2017-06-05T08:27:03.379Z,45056
2017-06-05T08:28:03.364Z,50976
2017-06-05T08:29:03.356Z,53728
2017-06-05T08:30:03.053Z,53504
2017-06-05T08:31:03.336Z,48672
2017-06-05T08:32:02.724Z,45760
2017-06-05T08:33:03.329Z,48608
2017-06-05T08:34:03.309Z,61632
2017-06-05T08:35:03.297Z,65280
2017-06-05T08:36:03.286Z,60256
2017-06-05T08:37:03.280Z,51168
2017-06-05T08:38:03.265Z,53248
2017-06-05T08:39:02.957Z,50880
2017-06-05T08:40:03.243Z,50688
2017-06-05T08:41:03.243Z,50944
2017-06-05T08:42:02.919Z,52224
2017-06-05T08:43:02.912Z,51392
2017-06-05T08:44:03.205Z,43456
2017-06-05T08:45:03.200Z,41856
2017-06-05T08:46:03.182Z,43008
2017-06-05T08:47:03.170Z,44064
2017-06-05T08:48:03.164Z,42240
2017-06-05T08:49:02.884Z,41696
2017-06-05T08:50:03.143Z,44192
2017-06-05T08:51:03.129Z,46528
2017-06-05T08:52:02.826Z,45632
2017-06-05T08:53:03.111Z,43072
2017-06-05T08:54:03.106Z,38720
2017-06-05T08:55:03.092Z,37792
2017-06-05T08:56:02.780Z,39872
2017-06-05T08:57:03.109Z,42624
2017-06-05T08:58:03.061Z,45280
2017-06-05T08:59:02.756Z,48544
2017-06-05T09:00:03.043Z,52672
2017-06-05T09:01:02.736Z,54272
2017-06-05T09:02:02.723Z,55232
2017-06-05T09:03:03.016Z,55552
2017-06-05T09:04:03.006Z,55840
2017-06-05T09:05:02.996Z,58688
2017-06-05T09:06:02.984Z,58976
2017-06-05T09:07:02.975Z,57568
2017-06-05T09:08:02.965Z,53568
2017-06-05T09:09:02.961Z,50944
2017-06-05T09:10:02.649Z,50016
2017-06-05T09:11:02.937Z,48224
2017-06-05T09:12:02.631Z,49056
2017-06-05T09:13:02.919Z,50496
2017-06-05T09:14:02.908Z,49856
2017-06-05T09:15:02.595Z,49248
2017-06-05T09:16:02.886Z,49664
2017-06-05T09:17:02.885Z,52064
2017-06-05T09:18:02.878Z,55008
2017-06-05T09:19:02.862Z,56832
2017-06-05T09:20:02.547Z,51232
2017-06-05T09:21:02.840Z,50368
2017-06-05T09:22:02.531Z,53280
2017-06-05T09:23:02.520Z,53856
2017-06-05T09:24:02.815Z,54624
2017-06-05T09:25:02.499Z,54304
2017-06-05T09:26:02.791Z,52224
2017-06-05T09:27:02.783Z,52128
2017-06-05T09:28:02.771Z,57024
2017-06-05T09:29:02.763Z,66976
2017-06-05T09:30:02.755Z,84320
2017-06-05T09:31:02.746Z,71936
2017-06-05T09:32:02.733Z,101088
2017-06-05T09:33:02.724Z,71200
2017-06-05T09:34:02.418Z,72032
2017-06-05T09:35:02.402Z,65632
2017-06-05T09:36:02.399Z,63136
2017-06-05T09:37:02.402Z,60384
2017-06-05T09:38:02.676Z,59328
2017-06-05T09:39:02.374Z,60160
2017-06-05T09:40:02.660Z,63424
2017-06-05T09:41:02.659Z,74432
2017-06-05T09:42:02.644Z,93120
2017-06-05T09:43:02.329Z,67360
2017-06-05T09:44:02.629Z,68608
2017-06-05T09:45:02.614Z,64000
2017-06-05T09:46:02.608Z,61632
2017-06-05T09:47:02.608Z,116704
2017-06-05T09:48:02.590Z,99616
2017-06-05T09:49:02.578Z,95872
2017-06-05T09:50:02.574Z,117888
2017-06-05T09:51:02.566Z,78368
2017-06-05T09:52:02.259Z,103104
2017-06-05T09:53:02.550Z,57056
2017-06-05T09:54:02.537Z,121600
2017-06-05T09:55:02.534Z,67328
2017-06-05T09:56:02.226Z,86880
2017-06-05T09:57:02.515Z,117024
2017-06-05T09:58:01.937Z,112928
2017-06-05T09:59:02.496Z,112032
2017-06-05T10:00:02.503Z,103680
2017-06-05T10:01:02.482Z,96672
2017-06-05T10:02:02.476Z,107552
2017-06-05T10:03:02.166Z,102528
2017-06-05T10:04:02.461Z,103712
2017-06-05T10:05:02.459Z,99680
2017-06-05T10:06:02.449Z,100768
2017-06-05T10:07:02.440Z,102112
2017-06-05T10:08:02.431Z,103648
2017-06-05T10:09:02.427Z,100256
2017-06-05T10:10:02.424Z,104512
2017-06-05T10:11:02.417Z,111488
2017-06-05T10:12:02.411Z,125216
2017-06-05T10:13:02.408Z,130208
2017-06-05T10:14:01.801Z,128192
2017-06-05T10:15:02.386Z,135328
2017-06-05T10:16:01.778Z,117888
2017-06-05T10:17:02.376Z,89856
2017-06-05T10:18:02.368Z,119904
2017-06-05T10:19:02.360Z,115008
2017-06-05T10:20:02.355Z,94048
2017-06-05T10:21:02.357Z,94752
2017-06-05T10:22:02.351Z,134944
2017-06-05T10:23:02.343Z,130688
2017-06-05T10:24:02.335Z,127744
2017-06-05T10:25:02.327Z,134560
2017-06-05T10:26:02.322Z,137632
2017-06-05T10:27:02.317Z,141472
2017-06-05T10:28:02.310Z,150048
2017-06-05T10:29:02.314Z,74528
2017-06-05T10:30:02.307Z,162176
2017-06-05T10:31:02.297Z,129664
2017-06-05T10:32:02.292Z,72896
2017-06-05T10:33:02.283Z,109760
2017-06-05T10:34:02.284Z,72864
2017-06-05T10:35:02.281Z,98848
2017-06-05T10:36:02.271Z,146112
2017-06-05T10:37:02.264Z,154688
2017-06-05T10:38:02.259Z,150816
2017-06-05T10:39:02.258Z,118624
2017-06-05T10:40:01.942Z,160352
2017-06-05T10:41:02.244Z,132096
2017-06-05T10:42:01.938Z,116384
2017-06-05T10:43:01.933Z,93696
2017-06-05T10:44:02.226Z,100128
2017-06-05T10:45:02.224Z,64384
2017-06-05T10:46:01.925Z,123808
2017-06-05T10:47:01.918Z,96000
2017-06-05T10:48:01.905Z,52800
2017-06-05T10:49:02.208Z,61600
2017-06-05T10:50:01.593Z,71264
2017-06-05T10:51:02.193Z,170112
2017-06-05T10:52:02.187Z,139328
2017-06-05T10:53:02.178Z,141760
2017-06-05T10:54:02.174Z,157568
2017-06-05T10:55:02.165Z,138880
2017-06-05T10:56:02.162Z,121792
2017-06-05T10:57:01.854Z,127904
2017-06-05T10:58:01.854Z,91872
2017-06-05T10:59:01.542Z,70528
2017-06-05T11:00:01.838Z,61248
2017-06-05T11:01:02.128Z,67648
2017-06-05T11:02:02.157Z,154624
2017-06-05T11:03:01.815Z,102592
2017-06-05T11:04:01.806Z,112896
2017-06-05T11:05:01.803Z,163936
2017-06-05T11:06:01.799Z,77344
2017-06-05T11:07:02.093Z,81344
2017-06-05T11:08:02.082Z,61888
2017-06-05T11:09:02.082Z,77216
2017-06-05T11:10:02.074Z,135232
2017-06-05T11:11:02.067Z,60384
2017-06-05T11:12:01.760Z,47136
2017-06-05T11:13:02.049Z,43712
2017-06-05T11:14:01.743Z,52064
2017-06-05T11:15:02.044Z,56672
2017-06-05T11:16:02.038Z,47520
2017-06-05T11:17:02.024Z,40256
2017-06-05T11:18:01.722Z,40000
2017-06-05T11:19:02.015Z,32448
2017-06-05T11:20:02.011Z,32448
2017-06-05T11:21:02.002Z,38816
2017-06-05T11:22:01.997Z,36768
2017-06-05T11:23:01.986Z,43712
2017-06-05T11:24:01.986Z,55968
2017-06-05T11:25:02.020Z,106944
2017-06-05T11:26:01.969Z,131808
2017-06-05T11:27:01.968Z,129312
2017-06-05T11:28:01.648Z,87840
2017-06-05T11:29:01.953Z,92608
2017-06-05T11:30:01.940Z,111392
2017-06-05T11:31:01.936Z,88992
2017-06-05T11:32:01.921Z,172896
2017-06-05T11:33:01.916Z,157408
2017-06-05T11:34:01.908Z,80768
2017-06-05T11:35:01.899Z,66944
2017-06-05T11:36:01.897Z,72768
2017-06-05T11:37:01.896Z,74432
2017-06-05T11:38:01.884Z,68160
2017-06-05T11:39:01.874Z,64832
2017-06-05T11:40:01.866Z,66112
2017-06-05T11:41:01.858Z,51584
2017-06-05T11:42:01.846Z,44672
2017-06-05T11:43:01.877Z,44128
2017-06-05T11:44:01.835Z,51648
2017-06-05T11:45:01.832Z,58592
2017-06-05T11:46:01.523Z,63136
2017-06-05T11:47:01.814Z,59904
2017-06-05T11:48:01.499Z,59360
2017-06-05T11:49:01.799Z,65664
2017-06-05T11:50:01.806Z,68128
2017-06-05T11:51:01.789Z,81344
2017-06-05T11:52:01.774Z,78752
2017-06-05T11:53:01.471Z,72256
2017-06-05T11:54:01.763Z,71872
2017-06-05T11:55:01.755Z,71232
2017-06-05T11:56:01.752Z,89696
2017-06-05T11:57:01.742Z,77600
2017-06-05T11:58:01.732Z,51616
2017-06-05T11:59:01.428Z,51424
2017-06-05T12:00:01.720Z,48736
2017-06-05T12:01:01.717Z,50880
2017-06-05T12:02:01.709Z,64448
2017-06-05T12:03:01.700Z,71168
2017-06-05T12:04:01.693Z,65056
2017-06-05T12:05:01.683Z,75840
2017-06-05T12:06:01.680Z,108256
2017-06-05T12:07:01.677Z,64448
2017-06-05T12:08:01.668Z,57120
2017-06-05T12:09:01.356Z,58816
2017-06-05T12:10:01.650Z,63712
2017-06-05T12:11:01.648Z,49088
2017-06-05T12:12:01.645Z,38048
2017-06-05T12:13:01.631Z,29344
2017-06-05T12:14:01.625Z,32192
2017-06-05T12:15:01.621Z,34240
2017-06-05T12:16:01.612Z,39456
2017-06-05T12:17:01.605Z,42144
2017-06-05T12:18:01.592Z,42624
2017-06-05T12:19:00.984Z,42784
2017-06-05T12:20:01.281Z,32800
2017-06-05T12:21:01.267Z,34496
2017-06-05T12:22:01.562Z,33984
2017-06-05T12:23:01.553Z,33568
2017-06-05T12:24:01.248Z,35936
2017-06-05T12:25:01.541Z,39040
2017-06-05T12:26:01.536Z,41472
2017-06-05T12:27:01.529Z,38880
2017-06-05T12:28:01.518Z,40480
2017-06-05T12:29:01.209Z,48224
2017-06-05T12:30:01.509Z,50848
2017-06-05T12:31:01.191Z,45728
2017-06-05T12:32:01.489Z,74080
2017-06-05T12:33:01.488Z,65664
2017-06-05T12:34:00.872Z,61664
2017-06-05T12:35:01.464Z,48096
2017-06-05T12:36:01.156Z,48768
2017-06-05T12:37:00.847Z,47424
2017-06-05T12:38:01.439Z,44192
2017-06-05T12:39:01.130Z,40416
2017-06-05T12:40:01.430Z,36096
2017-06-05T12:41:01.418Z,31584
2017-06-05T12:42:01.406Z,28800
2017-06-05T12:43:01.408Z,26880
2017-06-05T12:44:01.089Z,28544
2017-06-05T12:45:01.387Z,29248
2017-06-05T12:46:01.412Z,32064
2017-06-05T12:47:01.070Z,39328
2017-06-05T12:48:01.061Z,38080
2017-06-05T12:49:01.352Z,37152
2017-06-05T12:50:01.349Z,43680
2017-06-05T12:51:01.388Z,40608
2017-06-05T12:52:01.333Z,40832
2017-06-05T12:53:01.326Z,39808
2017-06-05T12:54:01.318Z,37184
2017-06-05T12:55:01.309Z,36288
2017-06-05T12:56:01.303Z,34528
2017-06-05T12:57:00.995Z,30144
2017-06-05T12:58:01.286Z,24480
2017-06-05T12:59:01.278Z,21344
2017-06-05T13:00:01.275Z,20000
2017-06-05T13:01:01.264Z,20160
2017-06-05T13:02:01.258Z,22304
2017-06-05T13:03:01.248Z,25152
2017-06-05T13:04:01.238Z,21216
2017-06-05T13:05:01.237Z,22560
2017-06-05T13:06:01.226Z,26944
2017-06-05T13:07:01.218Z,31520
2017-06-05T13:08:01.213Z,37824
2017-06-05T13:09:01.198Z,44896
2017-06-05T13:10:01.195Z,63040
2017-06-05T13:11:01.182Z,52128
2017-06-05T13:12:01.178Z,76032
2017-06-05T13:13:01.170Z,99328
2017-06-05T13:14:01.161Z,92192
2017-06-05T13:15:01.151Z,59072
2017-06-05T13:16:01.142Z,63392
2017-06-05T13:17:01.135Z,84480
2017-06-05T13:18:01.126Z,97824
2017-06-05T13:19:01.122Z,103296
2017-06-05T13:20:01.116Z,110016
2017-06-05T13:21:00.805Z,86496